< < Back
Terminal Aerodrome Forecast


Current Version              Previous Versions:   1  2  3  4  5  6  7  8  9  

Terminal Aerodrome Forecast

821
FTUS42 KILM 290823 AAA
TAFFLO
TAF AMD
KFLO 290823Z 2908/3006 28003KT 5SM BR BKN250
      TEMPO 2909/2912 00000KT 2SM BR
     FM291300 32008KT P6SM SCT050
     FM292300 VRB02KT P6SM SKC=



Latest METAR

414
SAUS70 KWBC 291400 RRF
MTRFLO
METAR KFLO 291353Z VRB05KT 10SM BKN009 22/18 A2999 RMK AO2 CIG 005V011
SLP152 T02220183


USA.gov is the U.S. government's official web portal to all federal, state and local government web resources and services.